createdAt,value
2023-02-19T00:00:02.561Z,100.00
2023-02-19T00:03:05.574Z,100.00
2023-02-19T00:06:05.639Z,100.00
2023-02-19T00:09:05.550Z,100.00
2023-02-19T00:12:05.571Z,100.00
2023-02-19T00:15:05.581Z,100.00
2023-02-19T00:18:05.593Z,100.00
2023-02-19T00:21:05.548Z,100.00
2023-02-19T00:24:11.573Z,100.00
2023-02-19T00:27:11.541Z,100.00
2023-02-19T00:30:11.707Z,100.00
2023-02-19T00:33:11.543Z,100.00
2023-02-19T00:36:18.551Z,100.00
2023-02-19T00:39:19.592Z,100.00
2023-02-19T00:42:19.590Z,100.00
2023-02-19T00:45:19.562Z,100.00
2023-02-19T00:48:20.558Z,100.00
2023-02-19T00:51:20.614Z,100.00
2023-02-19T00:54:20.602Z,100.00
2023-02-19T00:57:20.640Z,100.00
2023-02-19T01:00:20.553Z,100.00
2023-02-19T01:03:20.626Z,100.00
2023-02-19T01:06:21.571Z,100.00
2023-02-19T01:09:21.582Z,100.00
2023-02-19T01:12:21.601Z,100.00
2023-02-19T01:15:21.552Z,100.00
2023-02-19T01:18:21.557Z,100.00
2023-02-19T01:21:23.576Z,100.00
2023-02-19T01:24:23.582Z,100.00
2023-02-19T01:27:23.567Z,100.00
2023-02-19T01:30:23.635Z,100.00
2023-02-19T01:33:23.589Z,100.00
2023-02-19T01:36:23.585Z,100.00
2023-02-19T01:39:24.554Z,100.00
2023-02-19T01:42:27.567Z,100.00
2023-02-19T01:45:36.554Z,100.00
2023-02-19T01:48:37.572Z,100.00
2023-02-19T01:51:37.565Z,100.00
2023-02-19T01:54:39.566Z,100.00
2023-02-19T01:57:42.604Z,100.00
2023-02-19T02:00:42.623Z,100.00
2023-02-19T02:03:42.601Z,100.00
2023-02-19T02:06:49.588Z,100.00
2023-02-19T02:10:07.607Z,100.00
2023-02-19T02:13:11.569Z,100.00
2023-02-19T02:16:20.695Z,100.00
2023-02-19T02:19:42.549Z,100.00
2023-02-19T02:22:45.613Z,100.00
2023-02-19T02:25:57.555Z,100.00
2023-02-19T02:29:32.602Z,100.00
2023-02-19T02:32:39.537Z,100.00
2023-02-19T02:35:43.567Z,99.64
2023-02-19T02:38:45.597Z,99.35
2023-02-19T02:41:46.589Z,98.83
2023-02-19T02:45:10.594Z,99.85
2023-02-19T02:48:10.570Z,98.25
2023-02-19T02:51:25.557Z,97.50
2023-02-19T02:54:50.580Z,97.51
2023-02-19T02:57:50.562Z,97.00
2023-02-19T03:01:09.966Z,97.36
2023-02-19T03:04:18.613Z,96.32
2023-02-19T03:07:21.601Z,97.17
2023-02-19T03:10:24.596Z,96.83
2023-02-19T03:13:47.606Z,97.67
2023-02-19T03:17:07.606Z,97.57
2023-02-19T03:20:10.611Z,97.96
2023-02-19T03:23:10.575Z,98.67
2023-02-19T03:26:10.561Z,98.83
2023-02-19T03:29:29.561Z,98.85
2023-02-19T03:32:38.593Z,98.92
2023-02-19T03:35:41.551Z,98.32
2023-02-19T03:38:59.579Z,98.45
2023-02-19T03:42:02.589Z,98.41
2023-02-19T03:45:16.653Z,98.13
2023-02-19T03:48:13.568Z,97.71
2023-02-19T03:50:57.670Z,98.10
2023-02-19T03:53:58.568Z,97.34
2023-02-19T03:56:52.665Z,96.85
2023-02-19T03:59:57.602Z,96.72
2023-02-19T04:02:49.599Z,96.29
2023-02-19T04:05:52.613Z,96.85
2023-02-19T04:08:53.602Z,97.02
2023-02-19T04:11:54.606Z,97.28
2023-02-19T04:15:00.581Z,97.42
2023-02-19T04:18:05.599Z,98.19
2023-02-19T04:21:05.584Z,99.19
2023-02-19T04:24:05.573Z,100.00
2023-02-19T04:27:06.604Z,100.00
2023-02-19T04:30:06.612Z,100.00
2023-02-19T04:33:06.554Z,100.00
2023-02-19T04:36:06.585Z,100.00
2023-02-19T04:39:06.611Z,100.00
2023-02-19T04:42:06.589Z,100.00
2023-02-19T04:45:06.570Z,100.00
2023-02-19T04:48:06.606Z,100.00
2023-02-19T04:51:06.577Z,100.00
2023-02-19T04:54:06.696Z,100.00
2023-02-19T04:57:06.579Z,100.00
2023-02-19T05:00:06.543Z,100.00
2023-02-19T05:03:06.548Z,100.00
2023-02-19T05:06:06.548Z,100.00
2023-02-19T05:09:06.591Z,100.00
2023-02-19T05:12:06.602Z,100.00
2023-02-19T05:15:06.547Z,100.00
2023-02-19T05:18:06.540Z,100.00
2023-02-19T05:21:06.549Z,100.00
2023-02-19T05:24:06.599Z,100.00
2023-02-19T05:27:06.565Z,100.00
2023-02-19T05:30:06.575Z,100.00
2023-02-19T05:33:06.588Z,100.00
2023-02-19T05:36:08.591Z,100.00
2023-02-19T05:39:09.544Z,100.00
2023-02-19T05:42:09.561Z,100.00
2023-02-19T05:45:09.567Z,100.00
2023-02-19T05:48:09.542Z,100.00
2023-02-19T05:51:15.555Z,100.00
2023-02-19T05:54:15.546Z,100.00
2023-02-19T05:57:15.598Z,100.00
2023-02-19T06:00:15.554Z,100.00
2023-02-19T06:03:15.615Z,100.00
2023-02-19T06:06:17.556Z,100.00
2023-02-19T06:09:18.561Z,100.00
2023-02-19T06:12:18.574Z,100.00
2023-02-19T06:15:19.613Z,100.00
2023-02-19T06:18:19.592Z,100.00
2023-02-19T06:21:20.578Z,100.00
2023-02-19T06:24:21.556Z,100.00
2023-02-19T06:27:22.539Z,100.00
2023-02-19T06:30:22.606Z,100.00
2023-02-19T06:33:22.585Z,100.00
2023-02-19T06:36:27.601Z,100.00
2023-02-19T06:39:27.611Z,100.00
2023-02-19T06:42:27.610Z,100.00
2023-02-19T06:45:27.536Z,100.00
2023-02-19T06:48:27.568Z,100.00
2023-02-19T06:51:30.646Z,100.00
2023-02-19T06:54:32.601Z,100.00
2023-02-19T06:57:32.560Z,100.00
2023-02-19T07:00:32.605Z,100.00
2023-02-19T07:03:32.567Z,100.00
2023-02-19T07:06:33.580Z,100.00
2023-02-19T07:09:34.601Z,100.00
2023-02-19T07:12:34.548Z,100.00
2023-02-19T07:15:34.562Z,100.00
2023-02-19T07:18:34.581Z,100.00
2023-02-19T07:21:34.593Z,100.00
2023-02-19T07:24:34.583Z,100.00
2023-02-19T07:27:34.592Z,100.00
2023-02-19T07:30:34.578Z,100.00
2023-02-19T07:33:34.562Z,100.00
2023-02-19T07:36:28.630Z,100.00
2023-02-19T07:39:28.591Z,100.00
2023-02-19T07:42:28.554Z,100.00
2023-02-19T07:45:28.550Z,100.00
2023-02-19T07:48:28.611Z,100.00
2023-02-19T07:51:31.599Z,100.00
2023-02-19T07:54:31.564Z,100.00
2023-02-19T07:57:31.598Z,100.00
2023-02-19T08:00:32.563Z,100.00
2023-02-19T08:03:32.578Z,100.00
2023-02-19T08:06:32.572Z,100.00
2023-02-19T08:09:32.564Z,100.00
2023-02-19T08:12:51.597Z,100.00
2023-02-19T08:15:51.538Z,100.00
2023-02-19T08:18:51.606Z,100.00
2023-02-19T08:21:51.572Z,100.00
2023-02-19T08:24:51.560Z,100.00
2023-02-19T08:27:52.557Z,100.00
2023-02-19T08:30:53.602Z,100.00
2023-02-19T08:33:53.603Z,100.00
2023-02-19T08:36:53.589Z,100.00
2023-02-19T08:39:53.589Z,100.00
2023-02-19T08:42:53.568Z,100.00
2023-02-19T08:45:56.629Z,99.49
2023-02-19T08:48:56.550Z,98.29
2023-02-19T08:51:56.565Z,97.32
2023-02-19T08:54:56.548Z,96.32
2023-02-19T08:57:56.608Z,95.74
2023-02-19T09:00:56.572Z,95.37
2023-02-19T09:03:56.599Z,94.88
2023-02-19T09:06:56.580Z,94.79
2023-02-19T09:09:56.589Z,94.39
2023-02-19T09:12:56.590Z,94.16
2023-02-19T09:15:56.579Z,93.75
2023-02-19T09:18:56.559Z,92.94
2023-02-19T09:21:56.546Z,92.43
2023-02-19T09:24:57.542Z,91.73
2023-02-19T09:27:57.585Z,90.78
2023-02-19T09:30:57.629Z,89.42
2023-02-19T09:33:58.555Z,88.72
2023-02-19T09:36:58.566Z,87.95
2023-02-19T09:39:58.586Z,87.42
2023-02-19T09:42:59.779Z,86.73
2023-02-19T09:46:01.653Z,86.25
2023-02-19T09:49:01.567Z,84.64
2023-02-19T09:52:06.562Z,83.51
2023-02-19T09:55:06.531Z,83.60
2023-02-19T09:58:06.555Z,83.06
2023-02-19T10:01:08.709Z,81.72
2023-02-19T10:04:08.601Z,79.15
2023-02-19T10:07:10.585Z,76.93
2023-02-19T10:10:33.556Z,77.65
2023-02-19T10:13:41.555Z,77.32
2023-02-19T10:16:41.610Z,77.92
2023-02-19T10:19:41.560Z,79.20
2023-02-19T10:22:41.599Z,79.34
2023-02-19T10:25:41.564Z,78.69
2023-02-19T10:28:47.578Z,78.17
2023-02-19T10:31:47.642Z,76.93
2023-02-19T10:34:47.535Z,76.97
2023-02-19T10:37:47.543Z,77.13
2023-02-19T10:40:47.580Z,77.24
2023-02-19T10:43:51.554Z,76.73
2023-02-19T10:46:57.556Z,76.47
2023-02-19T10:49:57.575Z,75.70
2023-02-19T10:52:57.571Z,76.36
2023-02-19T10:55:57.567Z,78.79
2023-02-19T10:58:57.574Z,79.21
2023-02-19T11:02:10.607Z,80.30
2023-02-19T11:05:22.549Z,79.81
2023-02-19T11:08:34.565Z,79.49
2023-02-19T11:11:40.569Z,79.57
2023-02-19T11:14:40.628Z,77.23
2023-02-19T11:17:43.557Z,77.80
2023-02-19T11:20:43.549Z,78.82
2023-02-19T11:23:45.575Z,80.25
2023-02-19T11:26:46.544Z,80.39
2023-02-19T11:29:46.837Z,82.36
2023-02-19T11:32:46.575Z,82.35
2023-02-19T11:35:46.591Z,83.33
2023-02-19T11:38:46.576Z,83.85
2023-02-19T11:41:55.595Z,84.65
2023-02-19T11:45:04.607Z,84.80
2023-02-19T11:48:30.311Z,84.74
2023-02-19T11:51:39.555Z,83.99
2023-02-19T11:54:39.569Z,84.89
2023-02-19T11:58:01.584Z,85.41
2023-02-19T12:01:48.594Z,85.80
2023-02-19T12:05:09.551Z,87.90
2023-02-19T12:08:14.578Z,88.37
2023-02-19T12:11:37.602Z,88.67
2023-02-19T12:14:49.595Z,87.56
2023-02-19T12:18:04.612Z,85.70
2023-02-19T12:21:16.574Z,84.30
2023-02-19T12:25:10.590Z,84.93
2023-02-19T12:28:20.544Z,84.97
2023-02-19T12:31:42.602Z,83.83
2023-02-19T12:34:50.600Z,79.88
2023-02-19T12:38:12.540Z,76.90
2023-02-19T12:41:36.596Z,76.72
2023-02-19T12:44:41.589Z,79.07
2023-02-19T12:47:46.583Z,80.40
2023-02-19T12:50:48.592Z,80.84
2023-02-19T12:53:55.573Z,80.17
2023-02-19T12:57:17.543Z,80.01
2023-02-19T13:00:51.593Z,80.25
2023-02-19T13:04:00.592Z,78.64
2023-02-19T13:07:06.575Z,78.57
2023-02-19T13:10:24.618Z,77.18
2023-02-19T13:13:29.605Z,78.83
2023-02-19T13:16:30.628Z,81.27
2023-02-19T13:19:30.587Z,81.61
2023-02-19T13:23:06.564Z,82.13
2023-02-19T13:26:21.578Z,81.22
2023-02-19T13:29:45.578Z,80.87
2023-02-19T13:33:23.586Z,80.56
2023-02-19T13:36:30.564Z,81.60
2023-02-19T13:39:33.581Z,82.16
2023-02-19T13:42:44.575Z,82.76
2023-02-19T13:45:56.636Z,83.09
2023-02-19T13:48:56.665Z,82.12
2023-02-19T13:52:01.618Z,82.73
2023-02-19T13:55:01.565Z,82.61
2023-02-19T13:58:01.601Z,82.44
2023-02-19T14:01:09.965Z,81.85
2023-02-19T14:04:23.567Z,81.87
2023-02-19T14:07:23.589Z,82.15
2023-02-19T14:10:26.574Z,83.19
2023-02-19T14:14:01.621Z,83.44
2023-02-19T14:17:01.573Z,82.76
2023-02-19T14:20:15.606Z,82.29
2023-02-19T14:23:27.798Z,82.42
2023-02-19T14:26:28.611Z,82.36
2023-02-19T14:29:28.601Z,82.57
2023-02-19T14:32:33.577Z,82.46
2023-02-19T14:35:35.565Z,82.05
2023-02-19T14:38:49.589Z,81.90
2023-02-19T14:41:51.591Z,81.74
2023-02-19T14:45:00.607Z,81.23
2023-02-19T14:48:00.560Z,80.64
2023-02-19T14:51:02.574Z,80.05
2023-02-19T14:54:02.563Z,79.76
2023-02-19T14:57:04.590Z,79.53
2023-02-19T15:00:14.028Z,79.36
2023-02-19T15:03:13.595Z,79.68
2023-02-19T15:06:17.595Z,79.37
2023-02-19T15:09:19.618Z,79.66
2023-02-19T15:12:19.559Z,79.00
2023-02-19T15:15:19.631Z,79.67
2023-02-19T15:18:19.607Z,77.38
2023-02-19T15:21:19.634Z,77.06
2023-02-19T15:24:20.587Z,80.46
2023-02-19T15:27:20.626Z,83.85
2023-02-19T15:30:32.677Z,88.96
2023-02-19T15:33:35.571Z,91.19
2023-02-19T15:36:42.586Z,95.02
2023-02-19T15:39:51.579Z,98.38
2023-02-19T15:42:51.591Z,99.30
2023-02-19T15:45:54.570Z,100.00
2023-02-19T15:48:59.622Z,100.00
2023-02-19T15:52:05.558Z,100.00
2023-02-19T15:55:05.593Z,100.00
2023-02-19T15:58:15.596Z,100.00
2023-02-19T16:01:18.630Z,100.00
2023-02-19T16:04:25.577Z,100.00
2023-02-19T16:07:38.613Z,100.00
2023-02-19T16:10:39.589Z,100.00
2023-02-19T16:13:44.546Z,100.00
2023-02-19T16:16:49.568Z,100.00
2023-02-19T16:20:10.606Z,100.00
2023-02-19T16:23:13.612Z,100.00
2023-02-19T16:26:15.574Z,100.00
2023-02-19T16:29:15.617Z,100.00
2023-02-19T16:32:17.683Z,100.00
2023-02-19T16:35:17.632Z,100.00
2023-02-19T16:38:26.596Z,100.00
2023-02-19T16:41:26.643Z,100.00
2023-02-19T16:44:34.573Z,100.00
2023-02-19T16:47:41.672Z,100.00
2023-02-19T16:50:41.617Z,100.00
2023-02-19T16:53:41.628Z,100.00
2023-02-19T16:56:41.574Z,100.00
2023-02-19T16:59:41.590Z,100.00
2023-02-19T17:02:41.564Z,100.00
2023-02-19T17:05:42.623Z,100.00
2023-02-19T17:08:48.622Z,100.00
2023-02-19T17:11:49.612Z,100.00
2023-02-19T17:14:49.627Z,100.00
2023-02-19T17:17:49.590Z,100.00
2023-02-19T17:20:49.582Z,100.00
2023-02-19T17:23:49.574Z,100.00
2023-02-19T17:26:49.617Z,100.00
2023-02-19T17:29:49.574Z,100.00
2023-02-19T17:32:49.635Z,100.00
2023-02-19T17:35:51.608Z,100.00
2023-02-19T17:38:51.587Z,100.00
2023-02-19T17:41:51.604Z,99.36
2023-02-19T17:44:52.604Z,97.50
2023-02-19T17:47:52.593Z,97.06
2023-02-19T17:50:52.560Z,97.21
2023-02-19T17:53:52.580Z,97.37
2023-02-19T17:56:53.574Z,96.75
2023-02-19T17:59:53.597Z,96.18
2023-02-19T18:02:53.623Z,96.64
2023-02-19T18:05:53.572Z,94.30
2023-02-19T18:08:53.582Z,93.51
2023-02-19T18:11:53.636Z,97.95
2023-02-19T18:14:53.607Z,100.00
2023-02-19T18:17:53.623Z,100.00
2023-02-19T18:20:53.609Z,100.00
2023-02-19T18:23:53.605Z,100.00
2023-02-19T18:26:53.616Z,100.00
2023-02-19T18:29:53.743Z,100.00
2023-02-19T18:32:54.581Z,100.00
2023-02-19T18:35:55.623Z,100.00
2023-02-19T18:38:55.616Z,100.00
2023-02-19T18:42:00.567Z,100.00
2023-02-19T18:45:01.599Z,100.00
2023-02-19T18:48:02.597Z,100.00
2023-02-19T18:51:02.622Z,100.00
2023-02-19T18:54:02.609Z,100.00
2023-02-19T18:57:02.572Z,100.00
2023-02-19T19:00:02.581Z,100.00
2023-02-19T19:03:02.583Z,100.00
2023-02-19T19:06:02.592Z,100.00
2023-02-19T19:09:02.599Z,100.00
2023-02-19T19:12:02.582Z,100.00
2023-02-19T19:15:02.609Z,100.00
2023-02-19T19:18:02.565Z,100.00
2023-02-19T19:21:08.613Z,100.00
2023-02-19T19:24:08.620Z,100.00
2023-02-19T19:27:08.574Z,100.00
2023-02-19T19:30:08.722Z,100.00
2023-02-19T19:33:09.573Z,100.00
2023-02-19T19:36:09.604Z,100.00
2023-02-19T19:39:09.582Z,100.00
2023-02-19T19:42:10.559Z,100.00
2023-02-19T19:45:10.633Z,98.96
2023-02-19T19:48:10.555Z,98.30
2023-02-19T19:51:10.918Z,97.73
2023-02-19T19:54:10.603Z,98.16
2023-02-19T19:57:10.588Z,98.99
2023-02-19T20:00:10.566Z,98.18
2023-02-19T20:03:10.590Z,98.29
2023-02-19T20:06:10.571Z,97.19
2023-02-19T20:09:10.609Z,95.69
2023-02-19T20:12:10.604Z,95.78
2023-02-19T20:15:10.603Z,93.70
2023-02-19T20:18:13.621Z,94.76
2023-02-19T20:21:13.917Z,94.71
2023-02-19T20:24:13.574Z,92.24
2023-02-19T20:27:14.568Z,90.37
2023-02-19T20:30:14.692Z,90.53
2023-02-19T20:33:14.596Z,88.41
2023-02-19T20:36:14.586Z,88.72
2023-02-19T20:39:14.568Z,88.11
2023-02-19T20:42:16.519Z,86.89
2023-02-19T20:45:16.601Z,85.33
2023-02-19T20:48:16.604Z,85.59
2023-02-19T20:51:16.585Z,84.68
2023-02-19T20:54:16.583Z,84.21
2023-02-19T20:57:18.615Z,85.15
2023-02-19T21:00:20.655Z,84.90
2023-02-19T21:03:20.553Z,84.50
2023-02-19T21:06:20.628Z,84.67
2023-02-19T21:09:20.632Z,84.87
2023-02-19T21:12:20.625Z,83.73
2023-02-19T21:15:21.588Z,83.58
2023-02-19T21:18:22.606Z,83.62
2023-02-19T21:21:22.574Z,82.31
2023-02-19T21:24:22.627Z,82.71
2023-02-19T21:27:22.586Z,81.65
2023-02-19T21:30:23.616Z,81.71
2023-02-19T21:33:23.577Z,81.89
2023-02-19T21:36:23.565Z,80.59
2023-02-19T21:39:26.605Z,79.91
2023-02-19T21:42:26.606Z,79.98
2023-02-19T21:45:26.581Z,79.89
2023-02-19T21:48:26.631Z,80.40
2023-02-19T21:51:26.587Z,79.02
2023-02-19T21:54:30.614Z,78.57
2023-02-19T21:57:30.552Z,77.49
2023-02-19T22:00:30.646Z,77.78
2023-02-19T22:03:30.540Z,76.48
2023-02-19T22:06:30.596Z,75.56
2023-02-19T22:09:23.599Z,74.77
2023-02-19T22:12:09.596Z,74.15
2023-02-19T22:15:09.606Z,73.49
2023-02-19T22:18:09.548Z,72.87
2023-02-19T22:21:09.568Z,73.84
2023-02-19T22:24:09.553Z,72.16
2023-02-19T22:27:10.608Z,70.42
2023-02-19T22:30:10.587Z,69.86
2023-02-19T22:33:10.562Z,68.35
2023-02-19T22:36:10.850Z,66.90
2023-02-19T22:39:10.573Z,66.90
2023-02-19T22:42:10.557Z,66.51
2023-02-19T22:45:10.563Z,66.62
2023-02-19T22:48:11.664Z,66.30
2023-02-19T22:51:12.604Z,65.83
2023-02-19T22:54:12.568Z,65.93
2023-02-19T22:57:12.560Z,66.10
2023-02-19T23:00:12.547Z,65.50
2023-02-19T23:03:12.569Z,66.18
2023-02-19T23:06:12.867Z,66.61
2023-02-19T23:09:15.604Z,65.94
2023-02-19T23:12:19.573Z,66.17
2023-02-19T23:15:20.581Z,66.96
2023-02-19T23:18:20.584Z,67.54
2023-02-19T23:21:20.599Z,67.85
2023-02-19T23:24:20.604Z,68.45
2023-02-19T23:27:20.605Z,69.31
2023-02-19T23:30:20.621Z,68.78
2023-02-19T23:33:20.568Z,68.31
2023-02-19T23:36:20.588Z,69.00
2023-02-19T23:39:20.591Z,68.99
2023-02-19T23:42:20.577Z,68.21
2023-02-19T23:45:20.565Z,67.34
2023-02-19T23:48:13.593Z,68.48
2023-02-19T23:50:59.569Z,68.34
2023-02-19T23:53:59.581Z,68.81
2023-02-19T23:56:59.563Z,68.24
2023-02-19T23:59:59.555Z,67.85
